Terminal Aerodrome Forecast
Issued by NWS

Home | Current Version | Previous Version | Graphics & Text | Print | Product List | Glossary On
Versions: 1 2 3 4 5 6 7 8 9 10 11 12 13 14 15
366
FTUS43 KBIS 182107 AAA
TAFMOT
TAF AMD
KMOT 182107Z 1821/1918 25016G26KT P6SM SKC
     FM190100 24010KT P6SM FEW200
     FM190500 21006KT P6SM FEW200
     FM191200 19007KT P6SM FEW150=

USA.gov is the U.S. government's official web portal to all federal, state and local government web resources and services.